sensor_id;sensor_type;location;lat;lon;timestamp;temperature;humidity
21616;DHT22;10970;48.714;9.584;2023-04-23T00:02:09;12.70;99.90
21616;DHT22;10970;48.714;9.584;2023-04-23T00:04:49;12.70;99.90
21616;DHT22;10970;48.714;9.584;2023-04-23T00:07:15;12.70;99.90
21616;DHT22;10970;48.714;9.584;2023-04-23T00:09:44;12.80;99.90
21616;DHT22;10970;48.714;9.584;2023-04-23T00:12:10;12.90;99.90
21616;DHT22;10970;48.714;9.584;2023-04-23T00:14:36;13.00;99.90
21616;DHT22;10970;48.714;9.584;2023-04-23T00:17:02;13.00;99.90
21616;DHT22;10970;48.714;9.584;2023-04-23T00:19:28;13.00;99.90
21616;DHT22;10970;48.714;9.584;2023-04-23T00:21:54;13.00;99.90
21616;DHT22;10970;48.714;9.584;2023-04-23T00:24:20;13.00;99.90
21616;DHT22;10970;48.714;9.584;2023-04-23T00:26:46;13.00;99.90
21616;DHT22;10970;48.714;9.584;2023-04-23T00:29:11;12.90;99.90
21616;DHT22;10970;48.714;9.584;2023-04-23T00:31:37;12.90;99.90
21616;DHT22;10970;48.714;9.584;2023-04-23T00:34:03;12.90;99.90
21616;DHT22;10970;48.714;9.584;2023-04-23T00:36:29;12.90;99.90
21616;DHT22;10970;48.714;9.584;2023-04-23T00:38:54;12.90;99.90
21616;DHT22;10970;48.714;9.584;2023-04-23T00:41:20;12.90;99.90
21616;DHT22;10970;48.714;9.584;2023-04-23T00:43:46;12.80;99.90
21616;DHT22;10970;48.714;9.584;2023-04-23T00:46:13;12.80;99.90
21616;DHT22;10970;48.714;9.584;2023-04-23T00:48:39;12.80;99.90
21616;DHT22;10970;48.714;9.584;2023-04-23T00:51:06;12.80;99.90
21616;DHT22;10970;48.714;9.584;2023-04-23T00:53:32;12.80;99.90
21616;DHT22;10970;48.714;9.584;2023-04-23T00:56:00;12.80;99.90
21616;DHT22;10970;48.714;9.584;2023-04-23T00:58:27;12.80;99.90
21616;DHT22;10970;48.714;9.584;2023-04-23T01:00:53;12.80;99.90
21616;DHT22;10970;48.714;9.584;2023-04-23T01:03:20;12.80;99.90
21616;DHT22;10970;48.714;9.584;2023-04-23T01:05:47;12.80;99.90
21616;DHT22;10970;48.714;9.584;2023-04-23T01:08:15;12.80;99.90
21616;DHT22;10970;48.714;9.584;2023-04-23T01:10:43;12.80;99.90
21616;DHT22;10970;48.714;9.584;2023-04-23T01:13:09;12.80;99.90
21616;DHT22;10970;48.714;9.584;2023-04-23T01:15:35;12.80;99.90
21616;DHT22;10970;48.714;9.584;2023-04-23T01:18:00;12.80;99.90
21616;DHT22;10970;48.714;9.584;2023-04-23T01:20:29;12.80;99.90
21616;DHT22;10970;48.714;9.584;2023-04-23T01:22:55;12.80;99.90
21616;DHT22;10970;48.714;9.584;2023-04-23T01:25:20;12.70;99.90
21616;DHT22;10970;48.714;9.584;2023-04-23T01:27:47;12.80;99.90
21616;DHT22;10970;48.714;9.584;2023-04-23T01:30:13;12.70;99.90
21616;DHT22;10970;48.714;9.584;2023-04-23T01:32:39;12.70;99.90
21616;DHT22;10970;48.714;9.584;2023-04-23T01:35:05;12.70;99.90
21616;DHT22;10970;48.714;9.584;2023-04-23T01:37:31;12.70;99.90
21616;DHT22;10970;48.714;9.584;2023-04-23T01:39:58;12.70;99.90
21616;DHT22;10970;48.714;9.584;2023-04-23T01:42:24;12.70;99.90
21616;DHT22;10970;48.714;9.584;2023-04-23T01:44:50;12.70;99.90
21616;DHT22;10970;48.714;9.584;2023-04-23T01:47:17;12.70;99.90
21616;DHT22;10970;48.714;9.584;2023-04-23T01:49:43;12.60;99.90
21616;DHT22;10970;48.714;9.584;2023-04-23T01:52:08;12.60;99.90
21616;DHT22;10970;48.714;9.584;2023-04-23T01:54:34;12.60;99.90
21616;DHT22;10970;48.714;9.584;2023-04-23T01:56:59;12.60;99.90
21616;DHT22;10970;48.714;9.584;2023-04-23T01:59:25;12.60;99.90
21616;DHT22;10970;48.714;9.584;2023-04-23T02:01:51;12.60;99.90
21616;DHT22;10970;48.714;9.584;2023-04-23T02:04:17;12.60;99.90
21616;DHT22;10970;48.714;9.584;2023-04-23T02:06:45;12.60;99.90
21616;DHT22;10970;48.714;9.584;2023-04-23T02:09:12;12.60;99.90
21616;DHT22;10970;48.714;9.584;2023-04-23T02:11:37;12.60;99.90
21616;DHT22;10970;48.714;9.584;2023-04-23T02:14:04;12.70;99.90
21616;DHT22;10970;48.714;9.584;2023-04-23T02:16:30;12.60;99.90
21616;DHT22;10970;48.714;9.584;2023-04-23T02:18:57;12.60;99.90
21616;DHT22;10970;48.714;9.584;2023-04-23T02:21:23;12.60;99.90
21616;DHT22;10970;48.714;9.584;2023-04-23T02:23:49;12.60;99.90
21616;DHT22;10970;48.714;9.584;2023-04-23T02:26:15;12.60;99.90
21616;DHT22;10970;48.714;9.584;2023-04-23T02:28:41;12.60;99.90
21616;DHT22;10970;48.714;9.584;2023-04-23T02:31:06;12.60;99.90
21616;DHT22;10970;48.714;9.584;2023-04-23T02:33:32;12.50;99.90
21616;DHT22;10970;48.714;9.584;2023-04-23T02:35:58;12.50;99.90
21616;DHT22;10970;48.714;9.584;2023-04-23T02:38:23;12.50;99.90
21616;DHT22;10970;48.714;9.584;2023-04-23T02:40:49;12.50;99.90
21616;DHT22;10970;48.714;9.584;2023-04-23T02:43:15;12.50;99.90
21616;DHT22;10970;48.714;9.584;2023-04-23T02:45:40;12.40;99.90
21616;DHT22;10970;48.714;9.584;2023-04-23T02:48:06;12.30;99.90
21616;DHT22;10970;48.714;9.584;2023-04-23T02:50:31;12.30;99.90
21616;DHT22;10970;48.714;9.584;2023-04-23T02:52:57;12.30;99.90
21616;DHT22;10970;48.714;9.584;2023-04-23T02:55:23;12.30;99.90
21616;DHT22;10970;48.714;9.584;2023-04-23T02:57:50;12.20;99.90
21616;DHT22;10970;48.714;9.584;2023-04-23T03:00:16;12.20;99.90
21616;DHT22;10970;48.714;9.584;2023-04-23T03:02:42;12.10;99.90
21616;DHT22;10970;48.714;9.584;2023-04-23T03:05:08;12.10;99.90
21616;DHT22;10970;48.714;9.584;2023-04-23T03:07:34;12.10;99.90
21616;DHT22;10970;48.714;9.584;2023-04-23T03:09:59;12.10;99.90
21616;DHT22;10970;48.714;9.584;2023-04-23T03:12:25;12.10;99.90
21616;DHT22;10970;48.714;9.584;2023-04-23T03:14:51;12.00;99.90
21616;DHT22;10970;48.714;9.584;2023-04-23T03:17:16;12.00;99.90
21616;DHT22;10970;48.714;9.584;2023-04-23T03:19:42;11.90;99.90
21616;DHT22;10970;48.714;9.584;2023-04-23T03:22:08;11.90;99.90
21616;DHT22;10970;48.714;9.584;2023-04-23T03:24:33;11.90;99.90
21616;DHT22;10970;48.714;9.584;2023-04-23T03:26:59;11.90;99.90
21616;DHT22;10970;48.714;9.584;2023-04-23T03:29:25;11.90;99.90
21616;DHT22;10970;48.714;9.584;2023-04-23T03:31:51;11.90;99.90
21616;DHT22;10970;48.714;9.584;2023-04-23T03:34:16;11.80;99.90
21616;DHT22;10970;48.714;9.584;2023-04-23T03:36:43;11.80;99.90
21616;DHT22;10970;48.714;9.584;2023-04-23T03:39:10;11.80;99.90
21616;DHT22;10970;48.714;9.584;2023-04-23T03:41:36;11.80;99.90
21616;DHT22;10970;48.714;9.584;2023-04-23T03:44:02;11.80;99.90
21616;DHT22;10970;48.714;9.584;2023-04-23T03:46:27;11.70;99.90
21616;DHT22;10970;48.714;9.584;2023-04-23T03:48:53;11.70;99.90
21616;DHT22;10970;48.714;9.584;2023-04-23T03:51:18;11.70;99.90
21616;DHT22;10970;48.714;9.584;2023-04-23T03:53:44;11.70;99.90
21616;DHT22;10970;48.714;9.584;2023-04-23T03:56:10;11.70;99.90
21616;DHT22;10970;48.714;9.584;2023-04-23T03:58:36;11.70;99.90
21616;DHT22;10970;48.714;9.584;2023-04-23T04:01:02;11.70;99.90
21616;DHT22;10970;48.714;9.584;2023-04-23T04:03:28;11.70;99.90
21616;DHT22;10970;48.714;9.584;2023-04-23T04:05:54;11.70;99.90
21616;DHT22;10970;48.714;9.584;2023-04-23T04:08:19;11.60;99.90
21616;DHT22;10970;48.714;9.584;2023-04-23T04:10:45;11.60;99.90
21616;DHT22;10970;48.714;9.584;2023-04-23T04:13:11;11.60;99.90
21616;DHT22;10970;48.714;9.584;2023-04-23T04:15:36;11.60;99.90
21616;DHT22;10970;48.714;9.584;2023-04-23T04:18:02;11.60;99.90
21616;DHT22;10970;48.714;9.584;2023-04-23T04:20:28;11.60;99.90
21616;DHT22;10970;48.714;9.584;2023-04-23T04:22:54;11.60;99.90
21616;DHT22;10970;48.714;9.584;2023-04-23T04:25:19;11.60;99.90
21616;DHT22;10970;48.714;9.584;2023-04-23T04:27:47;11.60;99.90
21616;DHT22;10970;48.714;9.584;2023-04-23T04:30:13;11.70;99.90
21616;DHT22;10970;48.714;9.584;2023-04-23T04:32:39;11.70;99.90
21616;DHT22;10970;48.714;9.584;2023-04-23T04:35:07;11.70;99.90
21616;DHT22;10970;48.714;9.584;2023-04-23T04:37:37;11.70;99.90
21616;DHT22;10970;48.714;9.584;2023-04-23T04:40:04;11.70;99.90
21616;DHT22;10970;48.714;9.584;2023-04-23T04:42:32;11.70;99.90
21616;DHT22;10970;48.714;9.584;2023-04-23T04:44:58;11.70;99.90
21616;DHT22;10970;48.714;9.584;2023-04-23T04:47:24;11.70;99.90
21616;DHT22;10970;48.714;9.584;2023-04-23T04:49:50;11.70;99.90
21616;DHT22;10970;48.714;9.584;2023-04-23T04:52:16;11.70;99.90
21616;DHT22;10970;48.714;9.584;2023-04-23T04:54:42;11.70;99.90
21616;DHT22;10970;48.714;9.584;2023-04-23T04:57:07;11.70;99.90
21616;DHT22;10970;48.714;9.584;2023-04-23T04:59:33;11.70;99.90
21616;DHT22;10970;48.714;9.584;2023-04-23T05:01:59;11.70;99.90
21616;DHT22;10970;48.714;9.584;2023-04-23T05:04:25;11.70;99.90
21616;DHT22;10970;48.714;9.584;2023-04-23T05:06:51;11.80;99.90
21616;DHT22;10970;48.714;9.584;2023-04-23T05:09:16;11.80;99.90
21616;DHT22;10970;48.714;9.584;2023-04-23T05:11:42;11.80;99.90
21616;DHT22;10970;48.714;9.584;2023-04-23T05:14:08;11.80;99.90
21616;DHT22;10970;48.714;9.584;2023-04-23T05:16:34;11.80;99.90
21616;DHT22;10970;48.714;9.584;2023-04-23T05:19:00;11.80;99.90
21616;DHT22;10970;48.714;9.584;2023-04-23T05:21:25;11.80;99.90
21616;DHT22;10970;48.714;9.584;2023-04-23T05:23:53;11.80;99.90
21616;DHT22;10970;48.714;9.584;2023-04-23T05:26:19;11.80;99.90
21616;DHT22;10970;48.714;9.584;2023-04-23T05:28:45;11.90;99.90
21616;DHT22;10970;48.714;9.584;2023-04-23T05:31:11;11.80;99.90
21616;DHT22;10970;48.714;9.584;2023-04-23T05:33:37;11.90;99.90
21616;DHT22;10970;48.714;9.584;2023-04-23T05:36:03;12.00;99.90
21616;DHT22;10970;48.714;9.584;2023-04-23T05:38:29;12.00;99.90
21616;DHT22;10970;48.714;9.584;2023-04-23T05:40:54;12.10;99.90
21616;DHT22;10970;48.714;9.584;2023-04-23T05:43:20;12.20;99.90
21616;DHT22;10970;48.714;9.584;2023-04-23T05:45:46;12.30;99.90
21616;DHT22;10970;48.714;9.584;2023-04-23T05:48:12;12.30;99.90
21616;DHT22;10970;48.714;9.584;2023-04-23T05:50:37;12.40;99.90
21616;DHT22;10970;48.714;9.584;2023-04-23T05:53:03;12.40;99.90
21616;DHT22;10970;48.714;9.584;2023-04-23T05:55:29;12.40;99.90
21616;DHT22;10970;48.714;9.584;2023-04-23T05:57:55;12.40;99.90
21616;DHT22;10970;48.714;9.584;2023-04-23T06:00:20;12.40;99.90
21616;DHT22;10970;48.714;9.584;2023-04-23T06:02:46;12.40;99.90
21616;DHT22;10970;48.714;9.584;2023-04-23T06:05:12;12.30;99.90
21616;DHT22;10970;48.714;9.584;2023-04-23T06:07:38;12.30;99.90
21616;DHT22;10970;48.714;9.584;2023-04-23T06:10:05;12.30;99.90
21616;DHT22;10970;48.714;9.584;2023-04-23T06:12:31;12.30;99.90
21616;DHT22;10970;48.714;9.584;2023-04-23T06:14:57;12.40;99.90
21616;DHT22;10970;48.714;9.584;2023-04-23T06:17:22;12.50;99.90
21616;DHT22;10970;48.714;9.584;2023-04-23T06:19:48;12.60;99.90
21616;DHT22;10970;48.714;9.584;2023-04-23T06:22:14;12.70;99.90
21616;DHT22;10970;48.714;9.584;2023-04-23T06:24:39;12.80;99.90
21616;DHT22;10970;48.714;9.584;2023-04-23T06:27:05;12.90;99.90
21616;DHT22;10970;48.714;9.584;2023-04-23T06:29:31;13.00;99.90
21616;DHT22;10970;48.714;9.584;2023-04-23T06:32:00;13.10;99.90
21616;DHT22;10970;48.714;9.584;2023-04-23T06:34:26;13.20;99.90
21616;DHT22;10970;48.714;9.584;2023-04-23T06:36:52;13.30;99.90
21616;DHT22;10970;48.714;9.584;2023-04-23T06:39:18;13.40;99.90
21616;DHT22;10970;48.714;9.584;2023-04-23T06:41:44;13.60;99.90
21616;DHT22;10970;48.714;9.584;2023-04-23T06:44:09;13.70;99.90
21616;DHT22;10970;48.714;9.584;2023-04-23T06:46:35;13.80;99.90
21616;DHT22;10970;48.714;9.584;2023-04-23T06:49:01;13.80;99.90
21616;DHT22;10970;48.714;9.584;2023-04-23T06:51:27;13.90;99.90
21616;DHT22;10970;48.714;9.584;2023-04-23T06:53:53;14.30;99.90
21616;DHT22;10970;48.714;9.584;2023-04-23T06:56:19;14.80;99.90
21616;DHT22;10970;48.714;9.584;2023-04-23T06:58:46;15.30;99.90
21616;DHT22;10970;48.714;9.584;2023-04-23T07:01:12;15.80;99.90
21616;DHT22;10970;48.714;9.584;2023-04-23T07:03:38;16.40;99.90
21616;DHT22;10970;48.714;9.584;2023-04-23T07:06:03;16.60;99.90
21616;DHT22;10970;48.714;9.584;2023-04-23T07:08:30;16.50;99.90
21616;DHT22;10970;48.714;9.584;2023-04-23T07:10:56;16.50;99.90
21616;DHT22;10970;48.714;9.584;2023-04-23T07:13:21;16.40;99.90
21616;DHT22;10970;48.714;9.584;2023-04-23T07:15:48;16.30;99.90
21616;DHT22;10970;48.714;9.584;2023-04-23T07:18:14;16.40;99.90
21616;DHT22;10970;48.714;9.584;2023-04-23T07:20:39;16.20;99.90
21616;DHT22;10970;48.714;9.584;2023-04-23T07:23:05;16.10;99.90
21616;DHT22;10970;48.714;9.584;2023-04-23T07:25:31;16.50;99.90
21616;DHT22;10970;48.714;9.584;2023-04-23T07:27:57;17.00;99.90
21616;DHT22;10970;48.714;9.584;2023-04-23T07:30:24;17.00;99.90
21616;DHT22;10970;48.714;9.584;2023-04-23T07:32:50;16.90;99.90
21616;DHT22;10970;48.714;9.584;2023-04-23T07:35:16;16.60;99.90
21616;DHT22;10970;48.714;9.584;2023-04-23T07:37:42;16.30;99.90
21616;DHT22;10970;48.714;9.584;2023-04-23T07:40:08;16.00;99.90
21616;DHT22;10970;48.714;9.584;2023-04-23T07:42:34;15.90;99.90
21616;DHT22;10970;48.714;9.584;2023-04-23T07:45:00;15.60;99.90
21616;DHT22;10970;48.714;9.584;2023-04-23T07:47:25;15.50;99.90
21616;DHT22;10970;48.714;9.584;2023-04-23T07:49:51;15.50;99.90
21616;DHT22;10970;48.714;9.584;2023-04-23T07:52:17;15.80;99.90
21616;DHT22;10970;48.714;9.584;2023-04-23T07:54:43;16.10;99.90
21616;DHT22;10970;48.714;9.584;2023-04-23T07:57:09;16.10;99.90
21616;DHT22;10970;48.714;9.584;2023-04-23T07:59:35;16.10;99.90
21616;DHT22;10970;48.714;9.584;2023-04-23T08:02:03;15.90;99.90
21616;DHT22;10970;48.714;9.584;2023-04-23T08:04:29;15.70;99.90
21616;DHT22;10970;48.714;9.584;2023-04-23T08:06:55;15.70;99.90
21616;DHT22;10970;48.714;9.584;2023-04-23T08:09:20;16.10;99.90
21616;DHT22;10970;48.714;9.584;2023-04-23T08:11:46;16.50;99.90
21616;DHT22;10970;48.714;9.584;2023-04-23T08:14:13;16.50;99.90
21616;DHT22;10970;48.714;9.584;2023-04-23T08:16:39;16.60;99.90
21616;DHT22;10970;48.714;9.584;2023-04-23T08:19:08;16.40;99.90
21616;DHT22;10970;48.714;9.584;2023-04-23T08:21:33;16.30;99.90
21616;DHT22;10970;48.714;9.584;2023-04-23T08:23:59;16.40;99.90
21616;DHT22;10970;48.714;9.584;2023-04-23T08:26:27;16.50;99.90
21616;DHT22;10970;48.714;9.584;2023-04-23T08:28:52;16.50;99.90
21616;DHT22;10970;48.714;9.584;2023-04-23T08:31:18;16.60;99.90
21616;DHT22;10970;48.714;9.584;2023-04-23T08:33:44;16.80;99.90
21616;DHT22;10970;48.714;9.584;2023-04-23T08:36:10;16.70;99.90
21616;DHT22;10970;48.714;9.584;2023-04-23T08:38:36;16.70;99.90
21616;DHT22;10970;48.714;9.584;2023-04-23T08:41:05;17.30;99.90
21616;DHT22;10970;48.714;9.584;2023-04-23T08:43:37;17.70;99.90
21616;DHT22;10970;48.714;9.584;2023-04-23T08:46:10;17.90;99.90
21616;DHT22;10970;48.714;9.584;2023-04-23T08:48:36;17.90;99.90
21616;DHT22;10970;48.714;9.584;2023-04-23T08:51:03;17.90;99.90
21616;DHT22;10970;48.714;9.584;2023-04-23T08:53:30;17.80;99.90
21616;DHT22;10970;48.714;9.584;2023-04-23T08:55:57;17.60;99.90
21616;DHT22;10970;48.714;9.584;2023-04-23T08:58:24;17.40;99.90
21616;DHT22;10970;48.714;9.584;2023-04-23T09:00:53;17.30;99.90
21616;DHT22;10970;48.714;9.584;2023-04-23T09:03:19;17.40;99.90
21616;DHT22;10970;48.714;9.584;2023-04-23T09:05:46;17.50;99.90
21616;DHT22;10970;48.714;9.584;2023-04-23T09:08:11;17.60;99.90
21616;DHT22;10970;48.714;9.584;2023-04-23T09:10:39;17.90;99.90
21616;DHT22;10970;48.714;9.584;2023-04-23T09:13:06;18.30;99.90
21616;DHT22;10970;48.714;9.584;2023-04-23T09:15:32;18.70;99.90
21616;DHT22;10970;48.714;9.584;2023-04-23T09:18:00;18.50;99.90
21616;DHT22;10970;48.714;9.584;2023-04-23T09:20:26;18.80;99.90
21616;DHT22;10970;48.714;9.584;2023-04-23T09:22:52;18.80;99.90
21616;DHT22;10970;48.714;9.584;2023-04-23T09:25:19;19.10;99.90
21616;DHT22;10970;48.714;9.584;2023-04-23T09:27:46;19.30;99.90
21616;DHT22;10970;48.714;9.584;2023-04-23T09:30:12;19.20;99.90
21616;DHT22;10970;48.714;9.584;2023-04-23T09:32:39;19.40;99.90
21616;DHT22;10970;48.714;9.584;2023-04-23T09:35:12;19.40;99.90
21616;DHT22;10970;48.714;9.584;2023-04-23T09:37:41;19.20;99.90
21616;DHT22;10970;48.714;9.584;2023-04-23T09:40:07;19.30;99.90
21616;DHT22;10970;48.714;9.584;2023-04-23T09:42:34;19.30;99.90
21616;DHT22;10970;48.714;9.584;2023-04-23T09:45:04;19.10;99.90
21616;DHT22;10970;48.714;9.584;2023-04-23T09:47:36;19.10;99.90
21616;DHT22;10970;48.714;9.584;2023-04-23T09:50:03;19.10;99.90
21616;DHT22;10970;48.714;9.584;2023-04-23T09:52:33;19.20;99.90
21616;DHT22;10970;48.714;9.584;2023-04-23T09:55:02;19.10;99.90
21616;DHT22;10970;48.714;9.584;2023-04-23T09:57:36;19.40;99.90
21616;DHT22;10970;48.714;9.584;2023-04-23T10:00:13;19.40;99.90
21616;DHT22;10970;48.714;9.584;2023-04-23T10:02:50;19.20;99.90
21616;DHT22;10970;48.714;9.584;2023-04-23T10:05:19;18.90;99.90
21616;DHT22;10970;48.714;9.584;2023-04-23T10:07:46;18.60;99.90
21616;DHT22;10970;48.714;9.584;2023-04-23T10:10:15;18.40;99.90
21616;DHT22;10970;48.714;9.584;2023-04-23T10:12:42;18.50;99.90
21616;DHT22;10970;48.714;9.584;2023-04-23T10:15:09;18.90;99.90
21616;DHT22;10970;48.714;9.584;2023-04-23T10:17:36;18.90;99.90
21616;DHT22;10970;48.714;9.584;2023-04-23T10:20:03;18.80;99.90
21616;DHT22;10970;48.714;9.584;2023-04-23T10:22:30;19.10;99.90
21616;DHT22;10970;48.714;9.584;2023-04-23T10:24:59;19.50;99.90
21616;DHT22;10970;48.714;9.584;2023-04-23T10:27:28;19.70;99.90
21616;DHT22;10970;48.714;9.584;2023-04-23T10:29:56;19.90;99.90
21616;DHT22;10970;48.714;9.584;2023-04-23T10:32:22;20.00;99.90
21616;DHT22;10970;48.714;9.584;2023-04-23T10:34:48;20.10;99.90
21616;DHT22;10970;48.714;9.584;2023-04-23T10:37:16;20.10;99.90
21616;DHT22;10970;48.714;9.584;2023-04-23T10:39:46;20.10;99.90
21616;DHT22;10970;48.714;9.584;2023-04-23T10:42:15;20.20;99.90
21616;DHT22;10970;48.714;9.584;2023-04-23T10:44:42;20.40;99.90
21616;DHT22;10970;48.714;9.584;2023-04-23T10:47:15;20.40;99.90
21616;DHT22;10970;48.714;9.584;2023-04-23T10:49:42;20.20;99.90
21616;DHT22;10970;48.714;9.584;2023-04-23T10:52:11;20.10;99.90
21616;DHT22;10970;48.714;9.584;2023-04-23T10:54:40;20.10;99.90
21616;DHT22;10970;48.714;9.584;2023-04-23T10:57:07;19.90;99.90
21616;DHT22;10970;48.714;9.584;2023-04-23T10:59:38;19.60;99.90
21616;DHT22;10970;48.714;9.584;2023-04-23T11:02:09;19.50;99.90
21616;DHT22;10970;48.714;9.584;2023-04-23T11:04:52;19.80;99.90
21616;DHT22;10970;48.714;9.584;2023-04-23T11:07:19;20.00;99.90
21616;DHT22;10970;48.714;9.584;2023-04-23T11:09:45;19.90;99.90
21616;DHT22;10970;48.714;9.584;2023-04-23T11:14:50;19.80;99.90
21616;DHT22;10970;48.714;9.584;2023-04-23T11:17:17;20.00;99.90
21616;DHT22;10970;48.714;9.584;2023-04-23T11:22:35;20.30;99.90
21616;DHT22;10970;48.714;9.584;2023-04-23T11:25:03;20.40;99.90
21616;DHT22;10970;48.714;9.584;2023-04-23T11:27:30;20.40;99.90
21616;DHT22;10970;48.714;9.584;2023-04-23T11:29:56;20.30;99.90
21616;DHT22;10970;48.714;9.584;2023-04-23T11:32:22;20.10;99.90
21616;DHT22;10970;48.714;9.584;2023-04-23T11:34:49;20.00;99.90
21616;DHT22;10970;48.714;9.584;2023-04-23T11:37:16;19.80;99.90
21616;DHT22;10970;48.714;9.584;2023-04-23T11:39:44;19.90;99.90
21616;DHT22;10970;48.714;9.584;2023-04-23T11:42:14;19.90;99.90
21616;DHT22;10970;48.714;9.584;2023-04-23T11:44:42;19.80;99.90
21616;DHT22;10970;48.714;9.584;2023-04-23T11:47:09;20.00;99.90
21616;DHT22;10970;48.714;9.584;2023-04-23T11:49:39;19.90;99.90
21616;DHT22;10970;48.714;9.584;2023-04-23T11:52:11;19.80;99.90
21616;DHT22;10970;48.714;9.584;2023-04-23T11:54:39;20.10;99.90
21616;DHT22;10970;48.714;9.584;2023-04-23T11:57:05;20.30;99.90
21616;DHT22;10970;48.714;9.584;2023-04-23T11:59:31;20.20;99.90
21616;DHT22;10970;48.714;9.584;2023-04-23T12:01:58;20.00;99.90
21616;DHT22;10970;48.714;9.584;2023-04-23T12:04:26;20.00;99.90
21616;DHT22;10970;48.714;9.584;2023-04-23T12:06:53;19.90;99.90
21616;DHT22;10970;48.714;9.584;2023-04-23T12:09:24;20.00;99.90
21616;DHT22;10970;48.714;9.584;2023-04-23T12:11:50;19.90;99.90
21616;DHT22;10970;48.714;9.584;2023-04-23T12:14:19;20.10;99.90
21616;DHT22;10970;48.714;9.584;2023-04-23T12:16:47;20.50;99.90
21616;DHT22;10970;48.714;9.584;2023-04-23T12:19:20;20.70;99.90
21616;DHT22;10970;48.714;9.584;2023-04-23T12:21:48;20.60;99.90
21616;DHT22;10970;48.714;9.584;2023-04-23T12:24:14;20.70;99.90
21616;DHT22;10970;48.714;9.584;2023-04-23T12:26:41;20.70;99.90
21616;DHT22;10970;48.714;9.584;2023-04-23T12:29:07;20.60;99.90
21616;DHT22;10970;48.714;9.584;2023-04-23T12:31:35;20.60;99.90
21616;DHT22;10970;48.714;9.584;2023-04-23T12:36:29;20.10;99.90
21616;DHT22;10970;48.714;9.584;2023-04-23T12:41:47;19.90;99.90
21616;DHT22;10970;48.714;9.584;2023-04-23T12:44:14;19.80;99.90
21616;DHT22;10970;48.714;9.584;2023-04-23T12:46:39;19.80;99.90
21616;DHT22;10970;48.714;9.584;2023-04-23T12:49:05;19.90;99.90
21616;DHT22;10970;48.714;9.584;2023-04-23T12:51:31;19.90;99.90
21616;DHT22;10970;48.714;9.584;2023-04-23T12:53:57;20.00;99.90
21616;DHT22;10970;48.714;9.584;2023-04-23T12:56:23;20.10;99.90
21616;DHT22;10970;48.714;9.584;2023-04-23T12:58:48;20.00;99.90
21616;DHT22;10970;48.714;9.584;2023-04-23T13:01:14;19.90;99.90
21616;DHT22;10970;48.714;9.584;2023-04-23T13:03:40;19.90;99.90
21616;DHT22;10970;48.714;9.584;2023-04-23T13:06:06;19.60;99.90
21616;DHT22;10970;48.714;9.584;2023-04-23T13:08:34;19.40;99.90
21616;DHT22;10970;48.714;9.584;2023-04-23T13:11:00;19.40;99.90
21616;DHT22;10970;48.714;9.584;2023-04-23T13:13:26;19.30;99.90
21616;DHT22;10970;48.714;9.584;2023-04-23T13:15:52;19.20;99.90
21616;DHT22;10970;48.714;9.584;2023-04-23T13:18:18;19.40;99.90
21616;DHT22;10970;48.714;9.584;2023-04-23T13:20:44;19.70;99.90
21616;DHT22;10970;48.714;9.584;2023-04-23T13:23:10;19.90;99.90
21616;DHT22;10970;48.714;9.584;2023-04-23T13:25:36;20.00;99.90
21616;DHT22;10970;48.714;9.584;2023-04-23T13:28:02;20.20;99.90
21616;DHT22;10970;48.714;9.584;2023-04-23T13:30:28;20.20;99.90
21616;DHT22;10970;48.714;9.584;2023-04-23T13:32:54;20.30;99.90
21616;DHT22;10970;48.714;9.584;2023-04-23T13:35:22;20.10;99.90
21616;DHT22;10970;48.714;9.584;2023-04-23T13:37:48;20.20;99.90
21616;DHT22;10970;48.714;9.584;2023-04-23T13:40:14;20.20;99.90
21616;DHT22;10970;48.714;9.584;2023-04-23T13:42:40;20.30;99.90
21616;DHT22;10970;48.714;9.584;2023-04-23T13:45:06;20.30;99.90
21616;DHT22;10970;48.714;9.584;2023-04-23T13:47:32;19.90;99.90
21616;DHT22;10970;48.714;9.584;2023-04-23T13:49:59;19.90;99.90
21616;DHT22;10970;48.714;9.584;2023-04-23T13:52:31;20.00;99.90
21616;DHT22;10970;48.714;9.584;2023-04-23T13:54:57;20.10;99.90
21616;DHT22;10970;48.714;9.584;2023-04-23T13:57:25;20.30;99.90
21616;DHT22;10970;48.714;9.584;2023-04-23T13:59:51;20.40;99.90
21616;DHT22;10970;48.714;9.584;2023-04-23T14:02:20;20.40;99.90
21616;DHT22;10970;48.714;9.584;2023-04-23T14:04:45;20.40;99.90
21616;DHT22;10970;48.714;9.584;2023-04-23T14:07:11;20.40;99.90
21616;DHT22;10970;48.714;9.584;2023-04-23T14:09:36;20.40;99.90
21616;DHT22;10970;48.714;9.584;2023-04-23T14:12:03;20.40;99.90
21616;DHT22;10970;48.714;9.584;2023-04-23T14:14:28;20.30;99.90
21616;DHT22;10970;48.714;9.584;2023-04-23T14:16:54;20.40;99.90
21616;DHT22;10970;48.714;9.584;2023-04-23T14:19:20;20.50;99.90
21616;DHT22;10970;48.714;9.584;2023-04-23T14:21:46;20.60;99.90
21616;DHT22;10970;48.714;9.584;2023-04-23T14:24:22;20.70;99.90
21616;DHT22;10970;48.714;9.584;2023-04-23T14:26:51;20.80;99.90
21616;DHT22;10970;48.714;9.584;2023-04-23T14:29:28;20.80;99.90
21616;DHT22;10970;48.714;9.584;2023-04-23T14:31:53;20.90;99.90
21616;DHT22;10970;48.714;9.584;2023-04-23T14:34:19;21.00;99.90
21616;DHT22;10970;48.714;9.584;2023-04-23T14:36:46;21.10;99.90
21616;DHT22;10970;48.714;9.584;2023-04-23T14:39:14;21.20;99.90
21616;DHT22;10970;48.714;9.584;2023-04-23T14:41:39;21.10;99.90
21616;DHT22;10970;48.714;9.584;2023-04-23T14:44:05;20.90;99.90
21616;DHT22;10970;48.714;9.584;2023-04-23T14:46:31;20.60;99.90
21616;DHT22;10970;48.714;9.584;2023-04-23T14:48:57;20.50;99.90
21616;DHT22;10970;48.714;9.584;2023-04-23T14:51:23;20.50;99.90
21616;DHT22;10970;48.714;9.584;2023-04-23T14:53:50;20.40;99.90
21616;DHT22;10970;48.714;9.584;2023-04-23T14:56:15;20.30;99.90
21616;DHT22;10970;48.714;9.584;2023-04-23T14:58:41;20.40;99.90
21616;DHT22;10970;48.714;9.584;2023-04-23T15:01:07;20.50;99.90
21616;DHT22;10970;48.714;9.584;2023-04-23T15:03:33;20.50;99.90
21616;DHT22;10970;48.714;9.584;2023-04-23T15:05:59;20.40;99.90
21616;DHT22;10970;48.714;9.584;2023-04-23T15:08:25;20.30;99.90
21616;DHT22;10970;48.714;9.584;2023-04-23T15:10:51;20.40;99.90
21616;DHT22;10970;48.714;9.584;2023-04-23T15:13:38;20.40;99.90
21616;DHT22;10970;48.714;9.584;2023-04-23T15:16:17;20.30;99.90
21616;DHT22;10970;48.714;9.584;2023-04-23T15:18:43;20.30;99.90
21616;DHT22;10970;48.714;9.584;2023-04-23T15:21:09;20.40;99.90
21616;DHT22;10970;48.714;9.584;2023-04-23T15:23:34;20.60;99.90
21616;DHT22;10970;48.714;9.584;2023-04-23T15:26:00;20.50;99.90
21616;DHT22;10970;48.714;9.584;2023-04-23T15:28:26;20.60;99.90
21616;DHT22;10970;48.714;9.584;2023-04-23T15:30:52;20.60;99.90
21616;DHT22;10970;48.714;9.584;2023-04-23T15:33:17;20.60;99.90
21616;DHT22;10970;48.714;9.584;2023-04-23T15:35:46;20.50;99.90
21616;DHT22;10970;48.714;9.584;2023-04-23T15:38:13;20.40;99.90